SAZM/MDD METAR and TAF weather

Enter ICAO airport designator
Station Type Date Time Source
SAZM METAR 2020/01/17 22:00 UTC NOAA

SAZM 172200Z 06008KT CAVOK 22/14 Q1017


Station Type Date Time Source
SAZM Decoded METAR 2020/01/17 22:00 UTC NOAA

Mar Del Plata Aerodrome, Argentina (SAZM) 37-56S 057-35W 21M
Jan 17, 2020 - 05:00 PM EST / 2020.01.17 2200 UTC
Wind: from the ENE (060 degrees) at 9 MPH (8 KT):0
Visibility: greater than 7 mile(s):0
Temperature: 71 F (22 C)
Dew Point: 57 F (14 C)
Relative Humidity: 60%
Pressure (altimeter): 30.03 in. Hg (1017 hPa)
ob: SAZM 172200Z 06008KT CAVOK 22/14 Q1017
cycle: 22

Station Type Date Time Source
SAZM TAF 2020/01/17 18:58 UTC NOAA

TAF SAZM 171100Z 1718/1818 05010KT CAVOK TX24/1718Z TN15/1810Z
BECMG 1720/1723 02015KT
BECMG 1809/1812 34015G25KT

Example: see airport list